createdAt,value
2023-03-10T00:00:40.696Z,10.03
2023-03-10T00:03:07.860Z,10.43
2023-03-10T00:05:34.547Z,10.16
2023-03-10T00:08:01.362Z,9.53
2023-03-10T00:10:28.155Z,9.65
2023-03-10T00:12:55.040Z,10.01
2023-03-10T00:15:23.309Z,9.33
2023-03-10T00:17:50.190Z,9.51
2023-03-10T00:20:16.869Z,9.54
2023-03-10T00:22:43.761Z,9.58
2023-03-10T00:25:10.920Z,9.42
2023-03-10T00:27:37.530Z,9.42
2023-03-10T00:30:05.014Z,9.52
2023-03-10T00:32:31.723Z,9.40
2023-03-10T00:34:58.325Z,9.33
2023-03-10T00:37:24.915Z,9.09
2023-03-10T00:39:52.859Z,9.02
2023-03-10T00:42:20.244Z,8.78
2023-03-10T00:44:47.505Z,8.62
2023-03-10T00:47:14.638Z,8.55
2023-03-10T00:49:41.259Z,8.56
2023-03-10T00:52:07.903Z,8.84
2023-03-10T00:54:34.537Z,9.17
2023-03-10T00:57:01.287Z,8.72
2023-03-10T00:59:29.598Z,8.75
2023-03-10T01:01:59.581Z,8.47
2023-03-10T01:04:26.408Z,8.51
2023-03-10T01:06:53.043Z,8.67
2023-03-10T01:09:19.806Z,8.58
2023-03-10T01:11:46.386Z,8.74
2023-03-10T01:14:15.105Z,8.69
2023-03-10T01:16:41.955Z,8.60
2023-03-10T01:19:08.522Z,8.33
2023-03-10T01:21:37.203Z,8.47
2023-03-10T01:24:04.946Z,8.71
2023-03-10T01:26:31.738Z,8.47
2023-03-10T01:28:58.609Z,8.26
2023-03-10T01:31:25.351Z,8.24
2023-03-10T01:33:52.042Z,8.35
2023-03-10T01:36:25.821Z,8.42
2023-03-10T01:38:54.758Z,8.20
2023-03-10T01:41:22.513Z,8.46
2023-03-10T01:43:51.970Z,8.48
2023-03-10T01:46:46.787Z,8.59
2023-03-10T01:49:48.850Z,8.47
2023-03-10T01:52:25.313Z,8.59
2023-03-10T01:55:02.602Z,8.82
2023-03-10T01:57:37.455Z,8.61
2023-03-10T02:00:13.280Z,8.54
2023-03-10T02:02:56.349Z,8.99
2023-03-10T02:05:24.652Z,8.96
2023-03-10T02:07:52.352Z,8.74
2023-03-10T02:10:19.038Z,8.93
2023-03-10T02:12:45.688Z,8.89
2023-03-10T02:15:13.800Z,8.80
2023-03-10T02:17:41.128Z,9.02
2023-03-10T02:20:10.806Z,8.98
2023-03-10T02:22:40.068Z,9.01
2023-03-10T02:25:28.528Z,9.07
2023-03-10T02:27:56.174Z,9.25
2023-03-10T02:30:27.555Z,9.46
2023-03-10T02:33:07.595Z,9.13
2023-03-10T02:35:34.240Z,9.26
2023-03-10T02:38:00.943Z,9.19
2023-03-10T02:40:40.322Z,9.24
2023-03-10T02:43:13.083Z,9.45
2023-03-10T02:45:42.489Z,9.01
2023-03-10T02:48:16.174Z,9.11
2023-03-10T02:50:47.725Z,8.87
2023-03-10T02:53:18.192Z,8.87
2023-03-10T02:55:44.988Z,9.18
2023-03-10T02:58:12.575Z,9.44
2023-03-10T03:00:44.366Z,9.52
2023-03-10T03:03:11.728Z,9.54
2023-03-10T03:05:38.972Z,9.38
2023-03-10T03:08:07.507Z,9.07
2023-03-10T03:10:36.221Z,9.49
2023-03-10T03:13:04.174Z,9.03
2023-03-10T03:15:30.996Z,9.05
2023-03-10T03:17:58.642Z,8.94
2023-03-10T03:20:30.235Z,8.71
2023-03-10T03:22:57.868Z,8.90
2023-03-10T03:25:27.479Z,8.80
2023-03-10T03:27:55.185Z,8.43
2023-03-10T03:30:27.401Z,8.48
2023-03-10T03:32:55.181Z,8.21
2023-03-10T03:35:26.026Z,8.28
2023-03-10T03:37:53.948Z,8.18
2023-03-10T03:40:22.719Z,8.28
2023-03-10T03:42:52.796Z,8.20
2023-03-10T03:45:23.318Z,8.21
2023-03-10T03:47:50.311Z,8.45
2023-03-10T03:50:18.829Z,8.23
2023-03-10T03:52:46.500Z,7.81
2023-03-10T03:55:15.261Z,8.17
2023-03-10T03:57:42.286Z,8.13
2023-03-10T04:00:12.919Z,7.99
2023-03-10T04:02:40.826Z,7.55
2023-03-10T04:05:08.116Z,7.93
2023-03-10T04:07:34.729Z,7.42
2023-03-10T04:10:01.416Z,7.75
2023-03-10T04:12:29.585Z,7.62
2023-03-10T04:14:56.222Z,7.84
2023-03-10T04:17:22.839Z,8.10
2023-03-10T04:20:04.642Z,7.68
2023-03-10T04:22:33.120Z,7.82
2023-03-10T04:24:59.730Z,7.94
2023-03-10T04:27:26.276Z,8.07
2023-03-10T04:29:52.868Z,7.81
2023-03-10T04:32:20.159Z,7.07
2023-03-10T04:34:46.796Z,7.30
2023-03-10T04:37:13.447Z,7.58
2023-03-10T04:39:40.034Z,7.18
2023-03-10T04:42:06.897Z,7.43
2023-03-10T04:44:33.642Z,7.41
2023-03-10T04:47:00.905Z,7.72
2023-03-10T04:49:27.931Z,7.32
2023-03-10T04:51:54.512Z,7.30
2023-03-10T04:54:21.118Z,7.57
2023-03-10T04:56:47.700Z,8.04
2023-03-10T04:59:14.317Z,7.36
2023-03-10T05:01:41.064Z,7.33
2023-03-10T05:04:08.481Z,7.01
2023-03-10T05:06:35.146Z,7.40
2023-03-10T05:09:04.553Z,7.30
2023-03-10T05:11:32.179Z,7.47
2023-03-10T05:13:58.816Z,7.61
2023-03-10T05:16:25.529Z,7.32
2023-03-10T05:18:52.851Z,7.07
2023-03-10T05:21:21.798Z,7.17
2023-03-10T05:23:49.563Z,6.81
2023-03-10T05:26:17.399Z,7.46
2023-03-10T05:28:44.265Z,6.83
2023-03-10T05:31:14.448Z,6.93
2023-03-10T05:33:42.007Z,6.91
2023-03-10T05:36:11.611Z,6.98
2023-03-10T05:38:38.644Z,7.08
2023-03-10T05:41:10.577Z,7.16
2023-03-10T05:43:38.475Z,6.93
2023-03-10T05:46:06.378Z,6.63
2023-03-10T05:48:33.145Z,6.76
2023-03-10T05:51:09.037Z,7.18
2023-03-10T05:53:36.818Z,7.19
2023-03-10T05:56:09.976Z,7.23
2023-03-10T05:58:37.138Z,6.91
2023-03-10T06:01:04.363Z,6.72
2023-03-10T06:03:31.542Z,6.33
2023-03-10T06:05:58.771Z,6.42
2023-03-10T06:08:28.144Z,6.35
2023-03-10T06:10:55.572Z,6.19
2023-03-10T06:13:22.412Z,6.29
2023-03-10T06:15:54.599Z,6.26
2023-03-10T06:18:21.819Z,5.92
2023-03-10T06:20:49.481Z,5.77
2023-03-10T06:23:17.631Z,5.78
2023-03-10T06:25:44.614Z,5.95
2023-03-10T06:28:12.317Z,5.92
2023-03-10T06:30:39.110Z,5.89
2023-03-10T06:33:05.861Z,5.71
2023-03-10T06:35:32.555Z,5.92
2023-03-10T06:37:59.148Z,5.62
2023-03-10T06:40:26.295Z,5.62
2023-03-10T06:42:52.856Z,5.62
2023-03-10T06:45:19.613Z,5.52
2023-03-10T06:47:46.282Z,5.67
2023-03-10T06:50:13.781Z,5.55
2023-03-10T06:52:42.419Z,5.49
2023-03-10T06:55:09.586Z,5.61
2023-03-10T06:57:36.331Z,5.79
2023-03-10T07:00:04.722Z,5.72
2023-03-10T07:02:31.643Z,5.45
2023-03-10T07:04:58.418Z,5.40
2023-03-10T07:07:25.057Z,5.35
2023-03-10T07:09:51.622Z,4.95
2023-03-10T07:12:18.243Z,4.88
2023-03-10T07:14:44.876Z,4.89
2023-03-10T07:17:11.486Z,5.45
2023-03-10T07:19:38.053Z,5.38
2023-03-10T07:22:04.736Z,5.07
2023-03-10T07:24:31.294Z,5.25
2023-03-10T07:27:01.666Z,5.15
2023-03-10T07:29:28.796Z,5.22
2023-03-10T07:31:56.559Z,5.12
2023-03-10T07:34:23.584Z,5.23
2023-03-10T07:36:50.221Z,5.60
2023-03-10T07:39:16.953Z,5.60
2023-03-10T07:41:43.595Z,5.44
2023-03-10T07:44:10.221Z,5.28
2023-03-10T07:46:36.812Z,5.18
2023-03-10T07:49:06.758Z,5.52
2023-03-10T07:51:33.580Z,5.35
2023-03-10T07:54:00.415Z,5.47
2023-03-10T07:56:27.137Z,5.08
2023-03-10T07:58:53.697Z,5.16
2023-03-10T08:01:22.149Z,5.25
2023-03-10T08:03:49.764Z,5.06
2023-03-10T08:06:18.680Z,4.96
2023-03-10T08:08:45.310Z,5.06
2023-03-10T08:11:12.053Z,4.86
2023-03-10T08:13:39.408Z,5.05
2023-03-10T08:16:07.203Z,5.06
2023-03-10T08:18:34.763Z,5.07
2023-03-10T08:21:05.324Z,5.02
2023-03-10T08:23:32.967Z,4.73
2023-03-10T08:26:04.801Z,4.87
2023-03-10T08:28:32.539Z,4.74
2023-03-10T08:31:04.797Z,4.64
2023-03-10T08:33:32.401Z,4.67
2023-03-10T08:36:03.823Z,4.80
2023-03-10T08:38:31.035Z,4.97
2023-03-10T08:40:58.159Z,4.97
2023-03-10T08:43:24.830Z,4.64
2023-03-10T08:45:51.405Z,4.65
2023-03-10T08:48:18.030Z,4.62
2023-03-10T08:50:44.580Z,4.83
2023-03-10T08:53:12.604Z,4.57
2023-03-10T08:55:39.296Z,4.45
2023-03-10T08:58:05.962Z,4.39
2023-03-10T09:00:33.270Z,4.29
2023-03-10T09:02:59.960Z,4.52
2023-03-10T09:05:28.174Z,4.54
2023-03-10T09:07:55.359Z,4.24
2023-03-10T09:10:22.116Z,4.23
2023-03-10T09:12:48.793Z,4.21
2023-03-10T09:15:15.369Z,4.21
2023-03-10T09:17:42.011Z,4.31
2023-03-10T09:20:09.267Z,4.22
2023-03-10T09:22:35.933Z,4.26
2023-03-10T09:25:02.580Z,4.25
2023-03-10T09:27:29.177Z,3.96
2023-03-10T09:29:56.359Z,4.18
2023-03-10T09:32:24.011Z,4.28
2023-03-10T09:34:50.714Z,4.11
2023-03-10T09:37:17.392Z,4.25
2023-03-10T09:39:45.147Z,4.11
2023-03-10T09:42:38.795Z,4.29
2023-03-10T09:45:21.117Z,3.97
2023-03-10T09:47:50.178Z,3.96
2023-03-10T09:50:28.595Z,3.81
2023-03-10T09:53:32.811Z,3.46
2023-03-10T09:56:00.184Z,3.50
2023-03-10T09:58:39.305Z,3.43
2023-03-10T10:01:18.010Z,3.33
2023-03-10T10:03:52.991Z,3.43
2023-03-10T10:06:28.535Z,3.03
2023-03-10T10:09:24.565Z,3.19
2023-03-10T10:11:51.235Z,3.29
2023-03-10T10:14:29.938Z,3.19
2023-03-10T10:17:17.990Z,3.17
2023-03-10T10:19:47.888Z,3.26
2023-03-10T10:22:28.980Z,3.06
2023-03-10T10:25:08.073Z,3.01
2023-03-10T10:27:36.785Z,3.12
2023-03-10T10:30:26.621Z,3.19
2023-03-10T10:33:01.283Z,3.41
2023-03-10T10:35:31.355Z,3.19
2023-03-10T10:38:20.699Z,3.15
2023-03-10T10:41:09.565Z,3.13
2023-03-10T10:43:44.470Z,3.44
2023-03-10T10:46:14.148Z,3.59
2023-03-10T10:48:46.124Z,3.95
2023-03-10T10:51:24.545Z,3.98
2023-03-10T10:53:51.393Z,4.02
2023-03-10T10:56:19.901Z,4.13
2023-03-10T10:59:01.397Z,4.17
2023-03-10T11:01:56.162Z,4.21
2023-03-10T11:04:24.850Z,4.18
2023-03-10T11:06:52.687Z,4.58
2023-03-10T11:09:22.634Z,4.52
2023-03-10T11:12:12.359Z,4.23
2023-03-10T11:14:52.528Z,4.49
2023-03-10T11:17:27.470Z,4.27
2023-03-10T11:20:15.103Z,4.33
2023-03-10T11:22:57.689Z,4.40
2023-03-10T11:25:32.246Z,4.41
2023-03-10T11:28:18.878Z,4.27
2023-03-10T11:31:02.342Z,4.27
2023-03-10T11:34:16.773Z,4.02
2023-03-10T11:37:13.606Z,4.24
2023-03-10T11:39:52.031Z,4.20
2023-03-10T11:42:38.803Z,4.01
2023-03-10T11:45:26.957Z,4.23
2023-03-10T11:48:12.277Z,3.93
2023-03-10T11:50:59.247Z,3.77
2023-03-10T11:53:28.696Z,3.58
2023-03-10T11:55:58.082Z,3.42
2023-03-10T11:58:36.532Z,3.56
2023-03-10T12:01:04.063Z,3.62
2023-03-10T12:03:40.270Z,3.43
2023-03-10T12:06:14.545Z,3.43
2023-03-10T12:08:42.405Z,3.33
2023-03-10T12:11:18.337Z,3.35
2023-03-10T12:13:56.127Z,3.22
2023-03-10T12:16:27.455Z,3.35
2023-03-10T12:18:54.747Z,3.30
2023-03-10T12:21:25.765Z,3.18
2023-03-10T12:23:57.763Z,3.35
2023-03-10T12:26:39.704Z,3.11
2023-03-10T12:29:21.585Z,3.06
2023-03-10T12:31:53.546Z,3.04
2023-03-10T12:34:27.969Z,3.35
2023-03-10T12:37:12.388Z,3.56
2023-03-10T12:39:43.617Z,4.12
2023-03-10T12:42:35.295Z,3.85
2023-03-10T12:45:17.246Z,3.82
2023-03-10T12:47:50.607Z,3.91
2023-03-10T12:50:29.257Z,4.07
2023-03-10T12:53:11.056Z,4.14
2023-03-10T12:55:41.834Z,4.12
2023-03-10T12:58:23.252Z,4.50
2023-03-10T13:00:59.798Z,4.86
2023-03-10T13:03:26.459Z,5.05
2023-03-10T13:06:03.868Z,5.13
2023-03-10T13:08:39.353Z,5.23
2023-03-10T13:11:16.105Z,5.52
2023-03-10T13:13:43.565Z,5.84
2023-03-10T13:16:21.432Z,6.65
2023-03-10T13:18:53.523Z,7.01
2023-03-10T13:21:26.829Z,7.06
2023-03-10T13:23:53.552Z,6.91
2023-03-10T13:26:21.835Z,7.05
2023-03-10T13:28:57.405Z,6.96
2023-03-10T13:31:27.881Z,7.17
2023-03-10T13:33:56.417Z,7.14
2023-03-10T13:36:35.610Z,7.52
2023-03-10T13:39:04.559Z,7.54
2023-03-10T13:41:37.325Z,7.65
2023-03-10T13:44:04.258Z,8.09
2023-03-10T13:46:34.409Z,8.09
2023-03-10T13:49:06.562Z,8.38
2023-03-10T13:51:36.868Z,7.59
2023-03-10T13:54:23.766Z,8.34
2023-03-10T13:56:54.962Z,8.61
2023-03-10T13:59:26.592Z,8.56
2023-03-10T14:01:56.957Z,9.08
2023-03-10T14:04:52.274Z,8.96
2023-03-10T14:07:27.981Z,8.96
2023-03-10T14:10:03.417Z,9.23
2023-03-10T14:12:42.100Z,9.14
2023-03-10T14:15:14.596Z,9.56
2023-03-10T14:18:13.094Z,9.60
2023-03-10T14:20:46.124Z,9.32
2023-03-10T14:23:18.738Z,9.36
2023-03-10T14:25:46.675Z,9.74
2023-03-10T14:28:25.921Z,9.75
2023-03-10T14:30:53.603Z,9.92
2023-03-10T14:33:20.288Z,10.25
2023-03-10T14:35:47.193Z,11.02
2023-03-10T14:38:13.873Z,10.77
2023-03-10T14:40:50.489Z,11.21
2023-03-10T14:43:30.550Z,12.15
2023-03-10T14:46:01.194Z,13.07
2023-03-10T14:48:30.724Z,13.65
2023-03-10T14:50:57.372Z,14.04
2023-03-10T14:53:26.033Z,12.84
2023-03-10T14:55:58.429Z,8.00
2023-03-10T14:58:44.716Z,6.47
2023-03-10T15:01:11.357Z,5.10
2023-03-10T15:03:37.942Z,4.89
2023-03-10T15:06:04.752Z,4.31
2023-03-10T15:08:31.310Z,4.57
2023-03-10T15:10:58.323Z,4.37
2023-03-10T15:13:25.085Z,4.68
2023-03-10T15:15:53.181Z,4.17
2023-03-10T15:18:22.856Z,4.36
2023-03-10T15:20:50.210Z,4.30
2023-03-10T15:23:19.979Z,4.27
2023-03-10T15:25:46.982Z,4.56
2023-03-10T15:28:14.432Z,4.81
2023-03-10T15:30:41.163Z,5.34
2023-03-10T15:33:07.949Z,5.62
2023-03-10T15:35:35.104Z,6.46
2023-03-10T15:38:02.072Z,6.39
2023-03-10T15:40:31.616Z,6.14
2023-03-10T15:42:59.888Z,6.33
2023-03-10T15:45:28.605Z,6.47
2023-03-10T15:47:56.168Z,6.58
2023-03-10T15:50:24.107Z,6.48
2023-03-10T15:53:00.417Z,6.53
2023-03-10T15:55:29.013Z,6.58
2023-03-10T15:57:57.629Z,6.86
2023-03-10T16:00:27.448Z,7.10
2023-03-10T16:02:54.717Z,6.75
2023-03-10T16:05:22.147Z,7.06
2023-03-10T16:07:48.892Z,6.96
2023-03-10T16:10:18.173Z,6.85
2023-03-10T16:12:44.845Z,6.86
2023-03-10T16:15:13.009Z,6.83
2023-03-10T16:17:40.251Z,6.14
2023-03-10T16:20:12.061Z,5.89
2023-03-10T16:22:43.069Z,5.36
2023-03-10T16:25:18.707Z,5.11
2023-03-10T16:27:46.723Z,4.80
2023-03-10T16:30:15.697Z,4.63
2023-03-10T16:32:47.429Z,4.22
2023-03-10T16:35:15.365Z,3.55
2023-03-10T16:37:42.502Z,2.25
2023-03-10T16:40:09.996Z,1.84
2023-03-10T16:42:36.755Z,1.46
2023-03-10T16:45:05.586Z,1.17
2023-03-10T16:47:32.763Z,1.05
2023-03-10T16:49:59.388Z,1.21
2023-03-10T16:52:25.992Z,1.15
2023-03-10T16:54:58.187Z,1.19
2023-03-10T16:57:24.754Z,1.00
2023-03-10T16:59:51.376Z,1.04
2023-03-10T17:02:17.998Z,1.00
2023-03-10T17:04:45.461Z,1.09
2023-03-10T17:07:12.287Z,1.02
2023-03-10T17:09:38.961Z,1.14
2023-03-10T17:12:05.893Z,1.14
2023-03-10T17:14:32.864Z,1.19
2023-03-10T17:17:02.657Z,1.59
2023-03-10T17:19:30.061Z,2.84
2023-03-10T17:21:58.343Z,3.80
2023-03-10T17:24:25.974Z,3.52
2023-03-10T17:26:53.019Z,3.37
2023-03-10T17:29:19.740Z,2.00
2023-03-10T17:31:50.416Z,1.72
2023-03-10T17:34:19.169Z,1.49
2023-03-10T17:36:46.907Z,1.36
2023-03-10T17:39:19.956Z,1.27
2023-03-10T17:41:47.940Z,1.33
2023-03-10T17:44:15.875Z,1.22
2023-03-10T17:46:42.537Z,1.15
2023-03-10T17:49:12.338Z,1.44
2023-03-10T17:51:43.500Z,1.59
2023-03-10T17:54:13.460Z,1.58
2023-03-10T17:56:40.477Z,1.49
2023-03-10T17:59:07.136Z,1.45
2023-03-10T18:01:34.116Z,1.59
2023-03-10T18:04:01.600Z,1.62
2023-03-10T18:06:31.247Z,1.77
2023-03-10T18:08:59.943Z,1.86
2023-03-10T18:11:28.149Z,1.71
2023-03-10T18:13:55.131Z,1.76
2023-03-10T18:16:34.201Z,1.93
2023-03-10T18:19:01.223Z,2.15
2023-03-10T18:21:28.541Z,1.87
2023-03-10T18:23:55.509Z,1.85
2023-03-10T18:26:25.341Z,1.77
2023-03-10T18:28:52.040Z,1.83
2023-03-10T18:31:22.794Z,1.92
2023-03-10T18:33:49.647Z,2.05
2023-03-10T18:36:17.966Z,1.91
2023-03-10T18:38:46.621Z,1.72
2023-03-10T18:41:14.029Z,1.77
2023-03-10T18:43:40.653Z,1.60
2023-03-10T18:46:08.275Z,1.55
2023-03-10T18:48:35.198Z,1.56
2023-03-10T18:51:02.160Z,1.45
2023-03-10T18:53:29.160Z,1.42
2023-03-10T18:55:57.735Z,1.45
2023-03-10T18:58:24.646Z,1.40
2023-03-10T19:00:51.839Z,1.47
2023-03-10T19:03:19.315Z,1.69
2023-03-10T19:05:45.946Z,1.94
2023-03-10T19:08:12.593Z,1.86
2023-03-10T19:10:39.873Z,1.97
2023-03-10T19:13:07.696Z,2.12
2023-03-10T19:15:36.875Z,1.94
2023-03-10T19:18:04.418Z,2.13
2023-03-10T19:20:30.977Z,2.25
2023-03-10T19:22:57.657Z,2.33
2023-03-10T19:25:24.543Z,2.39
2023-03-10T19:27:51.399Z,2.56
2023-03-10T19:30:20.161Z,2.35
2023-03-10T19:32:47.745Z,2.36
2023-03-10T19:35:16.041Z,2.45
2023-03-10T19:37:46.969Z,2.37
2023-03-10T19:40:17.181Z,2.57
2023-03-10T19:42:44.876Z,2.67
2023-03-10T19:45:14.873Z,2.25
2023-03-10T19:47:41.973Z,2.09
2023-03-10T19:50:12.088Z,2.24
2023-03-10T19:52:43.881Z,2.21
2023-03-10T19:55:16.316Z,2.19
2023-03-10T19:57:42.932Z,2.26
2023-03-10T20:00:13.905Z,2.17
2023-03-10T20:02:44.640Z,2.28
2023-03-10T20:05:14.036Z,2.06
2023-03-10T20:07:42.272Z,2.10
2023-03-10T20:10:09.713Z,2.12
2023-03-10T20:12:36.821Z,2.09
2023-03-10T20:15:05.789Z,2.07
2023-03-10T20:17:32.604Z,2.02
2023-03-10T20:19:59.189Z,2.00
2023-03-10T20:22:25.778Z,1.98
2023-03-10T20:24:52.914Z,2.04
2023-03-10T20:27:19.560Z,2.16
2023-03-10T20:29:46.180Z,2.34
2023-03-10T20:32:12.835Z,2.46
2023-03-10T20:34:41.292Z,2.26
2023-03-10T20:37:08.499Z,2.57
2023-03-10T20:39:35.170Z,3.00
2023-03-10T20:42:01.843Z,2.73
2023-03-10T20:44:28.501Z,2.53
2023-03-10T20:46:55.797Z,2.48
2023-03-10T20:49:22.467Z,2.82
2023-03-10T20:51:49.050Z,2.92
2023-03-10T20:54:17.797Z,2.95
2023-03-10T20:56:44.460Z,2.99
2023-03-10T20:59:11.093Z,2.76
2023-03-10T21:01:39.776Z,2.82
2023-03-10T21:04:06.556Z,2.47
2023-03-10T21:06:33.271Z,2.92
2023-03-10T21:09:05.708Z,2.55
2023-03-10T21:11:33.873Z,2.56
2023-03-10T21:14:00.785Z,2.79
2023-03-10T21:16:27.880Z,3.01
2023-03-10T21:18:55.023Z,2.76
2023-03-10T21:21:21.974Z,2.93
2023-03-10T21:23:48.898Z,3.07
2023-03-10T21:26:20.507Z,3.02
2023-03-10T21:28:48.055Z,2.88
2023-03-10T21:31:15.876Z,2.92
2023-03-10T21:33:42.656Z,3.05
2023-03-10T21:36:18.200Z,2.87
2023-03-10T21:38:48.642Z,2.72
2023-03-10T21:41:27.014Z,2.65
2023-03-10T21:43:58.613Z,2.56
2023-03-10T21:46:26.166Z,2.58
2023-03-10T21:48:52.830Z,2.60
2023-03-10T21:51:23.135Z,2.78
2023-03-10T21:53:51.488Z,2.64
2023-03-10T21:56:18.156Z,2.69
2023-03-10T21:58:46.216Z,2.35
2023-03-10T22:01:15.001Z,2.45
2023-03-10T22:03:43.073Z,2.26
2023-03-10T22:06:10.198Z,2.36
2023-03-10T22:08:37.875Z,2.33
2023-03-10T22:11:06.861Z,2.50
2023-03-10T22:13:34.431Z,2.51
2023-03-10T22:16:01.366Z,2.32
2023-03-10T22:18:28.061Z,2.53
2023-03-10T22:20:54.753Z,2.30
2023-03-10T22:23:21.507Z,2.29
2023-03-10T22:25:48.145Z,2.47
2023-03-10T22:28:14.765Z,2.56
2023-03-10T22:30:41.445Z,2.61
2023-03-10T22:33:08.323Z,2.48
2023-03-10T22:35:36.909Z,2.51
2023-03-10T22:38:04.818Z,2.41
2023-03-10T22:40:32.308Z,2.53
2023-03-10T22:42:59.036Z,2.27
2023-03-10T22:45:26.810Z,2.42
2023-03-10T22:47:56.299Z,2.53
2023-03-10T22:50:26.841Z,2.41
2023-03-10T22:52:53.583Z,2.54
2023-03-10T22:55:23.761Z,2.56
2023-03-10T22:57:51.341Z,3.94
2023-03-10T23:00:22.464Z,3.60
2023-03-10T23:02:52.117Z,2.80
2023-03-10T23:05:19.767Z,2.34
2023-03-10T23:07:47.377Z,2.33
2023-03-10T23:10:20.807Z,2.12
2023-03-10T23:12:47.704Z,2.06
2023-03-10T23:15:27.681Z,2.24
2023-03-10T23:17:56.458Z,2.14
2023-03-10T23:20:27.297Z,2.14
2023-03-10T23:22:56.515Z,2.14
2023-03-10T23:25:28.609Z,2.21
2023-03-10T23:27:55.496Z,2.05
2023-03-10T23:30:22.239Z,2.13
2023-03-10T23:32:50.834Z,2.14
2023-03-10T23:35:22.161Z,2.11
2023-03-10T23:37:48.809Z,2.00
2023-03-10T23:40:18.448Z,2.14
2023-03-10T23:42:46.163Z,2.18
2023-03-10T23:45:16.187Z,2.03
2023-03-10T23:47:43.925Z,1.93
2023-03-10T23:50:23.437Z,2.04
2023-03-10T23:52:50.112Z,1.83
2023-03-10T23:55:20.348Z,2.03
2023-03-10T23:57:47.071Z,1.89
